NDF4TP LOWI-EDDH
Flight info
| Callsign | NDF4TP |
|---|---|
| Flight time | 1h 6m |
| Altitude | 34000 |
| Route | KOGOL3J KOGOL M726 KEMES DCT ABGUS DCT DIRBO/N0415F230 T902 RARUP RARUP6A |
| Aircraft | B738/M-SDE2E3FGHIRWXY/LB1 |
Departure
| Time | 2026-04-20 18:04 |
|---|---|
| Airport | Innsbruck Airport (LOWI) |
Arrival
| Time | 2026-04-20 19:10 |
|---|---|
| Airport | Hamburg Helmut Schmidt Airport (EDDH) |
| Time | Latitude | Longitude | Altitude | Speed | Heading |
|---|---|---|---|---|---|
| 2026-04-20 18:04 | 47.35469 | 11.74055 | 9528 ft | 296 kts | 65° |
| 2026-04-20 18:04 | 47.36268 | 11.76840 | 9516 ft | 294 kts | 64° |
| 2026-04-20 18:04 | 47.37056 | 11.79588 | 9573 ft | 294 kts | 65° |
| 2026-04-20 18:05 | 47.38667 | 11.85223 | 10734 ft | 301 kts | 64° |
| 2026-04-20 18:05 | 47.39492 | 11.88109 | 11326 ft | 307 kts | 64° |
| 2026-04-20 18:05 | 47.40494 | 11.90913 | 11789 ft | 311 kts | 43° |
| 2026-04-20 18:06 | 47.42227 | 11.92661 | 12391 ft | 298 kts | 11° |
| 2026-04-20 18:06 | 47.44242 | 11.92944 | 13081 ft | 287 kts | 347° |
| 2026-04-20 18:06 | 47.46116 | 11.92183 | 13721 ft | 279 kts | 328° |
| 2026-04-20 18:06 | 47.47705 | 11.90579 | 14254 ft | 275 kts | 312° |
| 2026-04-20 18:07 | 47.48827 | 11.88324 | 14828 ft | 271 kts | 295° |
| 2026-04-20 18:07 | 47.49605 | 11.85782 | 15375 ft | 273 kts | 295° |
| 2026-04-20 18:07 | 47.50720 | 11.83541 | 16092 ft | 271 kts | 313° |
| 2026-04-20 18:07 | 47.52122 | 11.81629 | 16371 ft | 285 kts | 314° |
| 2026-04-20 18:08 | 47.53643 | 11.79622 | 16690 ft | 294 kts | 315° |
| 2026-04-20 18:08 | 47.55138 | 11.77665 | 17767 ft | 280 kts | 314° |
| 2026-04-20 18:08 | 47.56590 | 11.75765 | 18532 ft | 278 kts | 316° |
| 2026-04-20 18:08 | 47.58248 | 11.74212 | 18978 ft | 287 kts | 329° |
| 2026-04-20 18:09 | 47.60066 | 11.73045 | 19491 ft | 289 kts | 330° |
| 2026-04-20 18:09 | 47.61944 | 11.71886 | 19974 ft | 292 kts | 330° |
| 2026-04-20 18:09 | 47.63830 | 11.70729 | 20510 ft | 293 kts | 330° |
| 2026-04-20 18:09 | 47.65723 | 11.69561 | 21022 ft | 296 kts | 330° |
| 2026-04-20 18:10 | 47.67636 | 11.68377 | 21570 ft | 299 kts | 330° |
| 2026-04-20 18:10 | 47.69561 | 11.67179 | 22055 ft | 300 kts | 329° |
| 2026-04-20 18:10 | 47.71511 | 11.65955 | 22161 ft | 316 kts | 329° |
| 2026-04-20 18:10 | 47.73580 | 11.64647 | 22279 ft | 330 kts | 330° |
| 2026-04-20 18:11 | 47.75747 | 11.63280 | 22400 ft | 344 kts | 330° |
| 2026-04-20 18:11 | 47.78001 | 11.61862 | 22495 ft | 357 kts | 330° |
| 2026-04-20 18:11 | 47.80327 | 11.60400 | 22591 ft | 369 kts | 330° |
| 2026-04-20 18:11 | 47.82734 | 11.58886 | 22683 ft | 381 kts | 330° |
| 2026-04-20 18:12 | 47.85222 | 11.57324 | 22763 ft | 393 kts | 331° |
| 2026-04-20 18:12 | 47.87862 | 11.56094 | 22869 ft | 411 kts | 341° |
| 2026-04-20 18:12 | 47.90730 | 11.55370 | 22990 ft | 422 kts | 343° |
| 2026-04-20 18:12 | 47.93644 | 11.54681 | 23264 ft | 426 kts | 343° |
| 2026-04-20 18:13 | 47.96579 | 11.53989 | 23677 ft | 426 kts | 343° |
| 2026-04-20 18:13 | 47.99516 | 11.53287 | 24019 ft | 427 kts | 343° |
| 2026-04-20 18:13 | 48.02455 | 11.52571 | 24288 ft | 429 kts | 343° |
| 2026-04-20 18:13 | 48.05411 | 11.51842 | 24556 ft | 431 kts | 343° |
| 2026-04-20 18:14 | 48.08374 | 11.51103 | 24850 ft | 432 kts | 343° |
| 2026-04-20 18:14 | 48.11311 | 11.50366 | 25136 ft | 433 kts | 343° |
| 2026-04-20 18:14 | 48.14295 | 11.49616 | 25404 ft | 435 kts | 343° |
| 2026-04-20 18:14 | 48.17287 | 11.48863 | 25660 ft | 436 kts | 343° |
| 2026-04-20 18:15 | 48.20290 | 11.48106 | 25989 ft | 436 kts | 343° |
| 2026-04-20 18:15 | 48.23285 | 11.47353 | 26409 ft | 434 kts | 343° |
| 2026-04-20 18:15 | 48.26227 | 11.46614 | 26833 ft | 431 kts | 343° |
| 2026-04-20 18:15 | 48.29191 | 11.45866 | 27211 ft | 431 kts | 342° |
| 2026-04-20 18:16 | 48.32156 | 11.45116 | 27570 ft | 430 kts | 342° |
| 2026-04-20 18:16 | 48.35104 | 11.44369 | 27944 ft | 429 kts | 342° |
| 2026-04-20 18:16 | 48.38049 | 11.43621 | 28334 ft | 427 kts | 342° |
| 2026-04-20 18:16 | 48.40947 | 11.42885 | 28697 ft | 427 kts | 342° |
| 2026-04-20 18:17 | 48.43867 | 11.42142 | 29072 ft | 426 kts | 342° |
| 2026-04-20 18:17 | 48.46799 | 11.41396 | 29445 ft | 424 kts | 342° |
| 2026-04-20 18:17 | 48.49708 | 11.40655 | 29831 ft | 423 kts | 342° |
| 2026-04-20 18:17 | 48.52626 | 11.39910 | 30256 ft | 422 kts | 342° |
| 2026-04-20 18:18 | 48.55468 | 11.39187 | 30686 ft | 418 kts | 342° |
| 2026-04-20 18:18 | 48.58334 | 11.38454 | 30915 ft | 419 kts | 342° |
| 2026-04-20 18:18 | 48.61220 | 11.37713 | 31093 ft | 421 kts | 342° |
| 2026-04-20 18:18 | 48.64117 | 11.36968 | 31323 ft | 421 kts | 342° |
| 2026-04-20 18:19 | 48.67011 | 11.36224 | 31578 ft | 420 kts | 342° |
| 2026-04-20 18:19 | 48.69864 | 11.35490 | 31754 ft | 422 kts | 342° |
| 2026-04-20 18:19 | 48.72770 | 11.34741 | 31957 ft | 423 kts | 342° |
| 2026-04-20 18:19 | 48.75679 | 11.33992 | 32279 ft | 422 kts | 342° |
| 2026-04-20 18:20 | 48.78578 | 11.33246 | 32568 ft | 421 kts | 342° |
| 2026-04-20 18:20 | 48.81469 | 11.32500 | 32800 ft | 421 kts | 343° |
| 2026-04-20 18:20 | 48.84330 | 11.31761 | 33010 ft | 422 kts | 343° |
| 2026-04-20 18:20 | 48.87225 | 11.31012 | 33257 ft | 422 kts | 343° |
| 2026-04-20 18:21 | 48.90117 | 11.30263 | 33498 ft | 421 kts | 343° |
| 2026-04-20 18:21 | 48.93015 | 11.29509 | 33738 ft | 421 kts | 343° |
| 2026-04-20 18:21 | 48.95901 | 11.28760 | 33950 ft | 421 kts | 343° |
| 2026-04-20 18:21 | 48.98805 | 11.28004 | 34087 ft | 424 kts | 344° |
| 2026-04-20 18:22 | 49.04661 | 11.26477 | 34099 ft | 433 kts | 344° |
| 2026-04-20 18:22 | 49.10644 | 11.24916 | 34102 ft | 436 kts | 344° |
| 2026-04-20 18:23 | 49.16620 | 11.23354 | 34099 ft | 438 kts | 344° |
| 2026-04-20 18:23 | 49.22693 | 11.22065 | 34099 ft | 444 kts | 351° |
| 2026-04-20 18:24 | 49.28865 | 11.21709 | 34106 ft | 446 kts | 352° |
| 2026-04-20 18:24 | 49.35071 | 11.21455 | 34102 ft | 446 kts | 352° |
| 2026-04-20 18:25 | 49.41277 | 11.21138 | 34089 ft | 445 kts | 352° |
| 2026-04-20 18:25 | 49.47437 | 11.20774 | 34111 ft | 447 kts | 352° |
| 2026-04-20 18:26 | 49.53670 | 11.20389 | 34109 ft | 448 kts | 352° |
| 2026-04-20 18:26 | 49.59873 | 11.20004 | 34105 ft | 448 kts | 352° |
| 2026-04-20 18:27 | 49.66107 | 11.19616 | 34121 ft | 448 kts | 353° |
| 2026-04-20 18:27 | 49.72371 | 11.19228 | 34110 ft | 450 kts | 353° |
| 2026-04-20 18:28 | 49.78601 | 11.18841 | 34116 ft | 450 kts | 353° |
| 2026-04-20 18:28 | 49.84886 | 11.18451 | 34109 ft | 451 kts | 353° |
| 2026-04-20 18:29 | 49.91160 | 11.18059 | 34119 ft | 451 kts | 354° |
| 2026-04-20 18:29 | 49.97387 | 11.17671 | 34115 ft | 451 kts | 354° |
| 2026-04-20 18:30 | 50.03664 | 11.17275 | 34120 ft | 451 kts | 354° |
| 2026-04-20 18:30 | 50.09949 | 11.16878 | 34121 ft | 451 kts | 354° |
| 2026-04-20 18:31 | 50.16195 | 11.16483 | 34121 ft | 452 kts | 354° |
| 2026-04-20 18:31 | 50.22484 | 11.16084 | 34118 ft | 452 kts | 354° |
| 2026-04-20 18:32 | 50.28775 | 11.15685 | 34123 ft | 452 kts | 354° |
| 2026-04-20 18:32 | 50.35039 | 11.15286 | 34132 ft | 452 kts | 355° |
| 2026-04-20 18:33 | 50.41335 | 11.14885 | 34115 ft | 453 kts | 355° |
| 2026-04-20 18:33 | 50.47622 | 11.14483 | 34132 ft | 453 kts | 355° |
| 2026-04-20 18:34 | 50.53945 | 11.14076 | 34132 ft | 454 kts | 355° |
| 2026-04-20 18:34 | 50.60236 | 11.13671 | 34136 ft | 454 kts | 355° |
| 2026-04-20 18:35 | 50.66571 | 11.13264 | 34133 ft | 455 kts | 355° |
| 2026-04-20 18:35 | 50.71838 | 11.12928 | 34132 ft | 455 kts | 355° |
| 2026-04-20 18:36 | 50.78178 | 11.12515 | 34131 ft | 455 kts | 355° |
| 2026-04-20 18:36 | 50.84469 | 11.12104 | 34130 ft | 456 kts | 355° |
| 2026-04-20 18:37 | 50.90818 | 11.11689 | 34134 ft | 456 kts | 355° |
| 2026-04-20 18:37 | 50.97177 | 11.11274 | 34133 ft | 456 kts | 355° |
| 2026-04-20 18:38 | 51.03489 | 11.10861 | 34128 ft | 456 kts | 355° |
| 2026-04-20 18:38 | 51.09844 | 11.10443 | 34129 ft | 457 kts | 356° |
| 2026-04-20 18:39 | 51.16188 | 11.10026 | 34135 ft | 457 kts | 356° |
| 2026-04-20 18:39 | 51.22563 | 11.09604 | 34137 ft | 458 kts | 356° |
| 2026-04-20 18:40 | 51.28948 | 11.09125 | 34145 ft | 458 kts | 354° |
| 2026-04-20 18:40 | 51.35275 | 11.08116 | 34142 ft | 458 kts | 353° |
| 2026-04-20 18:41 | 51.41588 | 11.06948 | 34134 ft | 457 kts | 352° |
| 2026-04-20 18:41 | 51.47867 | 11.05833 | 34121 ft | 451 kts | 353° |
| 2026-04-20 18:42 | 51.54100 | 11.04770 | 34152 ft | 448 kts | 354° |
| 2026-04-20 18:42 | 51.60266 | 11.03732 | 34138 ft | 446 kts | 354° |
| 2026-04-20 18:43 | 51.66450 | 11.02691 | 34156 ft | 445 kts | 354° |
| 2026-04-20 18:43 | 51.72634 | 11.01645 | 34142 ft | 446 kts | 354° |
| 2026-04-20 18:44 | 51.78778 | 11.00602 | 34165 ft | 447 kts | 354° |
| 2026-04-20 18:44 | 51.84965 | 10.99548 | 34157 ft | 448 kts | 354° |
| 2026-04-20 18:45 | 51.91190 | 10.98484 | 34161 ft | 449 kts | 354° |
| 2026-04-20 18:45 | 51.97375 | 10.97426 | 34173 ft | 449 kts | 354° |
| 2026-04-20 18:46 | 52.03612 | 10.96354 | 34176 ft | 450 kts | 354° |
| 2026-04-20 18:46 | 52.09855 | 10.95279 | 34156 ft | 451 kts | 354° |
| 2026-04-20 18:47 | 52.16099 | 10.94201 | 34174 ft | 450 kts | 354° |
| 2026-04-20 18:47 | 52.22295 | 10.93129 | 34170 ft | 450 kts | 354° |
| 2026-04-20 18:48 | 52.28534 | 10.92046 | 34157 ft | 450 kts | 354° |
| 2026-04-20 18:48 | 52.34761 | 10.90962 | 34175 ft | 449 kts | 354° |
| 2026-04-20 18:49 | 52.40961 | 10.89965 | 34164 ft | 449 kts | 359° |
| 2026-04-20 18:49 | 52.47172 | 10.90276 | 34165 ft | 448 kts | 4° |
| 2026-04-20 18:50 | 52.53407 | 10.90904 | 34168 ft | 448 kts | 4° |
| 2026-04-20 18:50 | 52.59577 | 10.91506 | 34133 ft | 431 kts | 4° |
| 2026-04-20 18:51 | 52.62521 | 10.91786 | 34141 ft | 416 kts | 4° |
| 2026-04-20 18:51 | 52.65332 | 10.92055 | 34133 ft | 403 kts | 4° |
| 2026-04-20 18:51 | 52.68146 | 10.92323 | 33404 ft | 407 kts | 4° |
| 2026-04-20 18:51 | 52.70991 | 10.92430 | 32679 ft | 410 kts | 356° |
| 2026-04-20 18:52 | 52.73869 | 10.91795 | 32076 ft | 424 kts | 351° |
| 2026-04-20 18:52 | 52.76784 | 10.90836 | 31471 ft | 439 kts | 350° |
| 2026-04-20 18:52 | 52.79821 | 10.89794 | 30861 ft | 449 kts | 350° |
| 2026-04-20 18:52 | 52.82895 | 10.88798 | 30235 ft | 448 kts | 351° |
| 2026-04-20 18:53 | 52.85977 | 10.87882 | 29517 ft | 450 kts | 352° |
| 2026-04-20 18:53 | 52.89066 | 10.87032 | 28795 ft | 451 kts | 353° |
| 2026-04-20 18:53 | 52.92172 | 10.86220 | 28097 ft | 451 kts | 353° |
| 2026-04-20 18:53 | 52.95240 | 10.85441 | 27439 ft | 451 kts | 353° |
| 2026-04-20 18:54 | 52.98346 | 10.84660 | 26784 ft | 451 kts | 353° |
| 2026-04-20 18:54 | 53.01458 | 10.83888 | 26136 ft | 451 kts | 354° |
| 2026-04-20 18:54 | 53.04567 | 10.83111 | 25504 ft | 452 kts | 353° |
| 2026-04-20 18:54 | 53.07676 | 10.82316 | 24908 ft | 453 kts | 353° |
| 2026-04-20 18:55 | 53.10807 | 10.81509 | 24290 ft | 449 kts | 353° |
| 2026-04-20 18:55 | 53.13861 | 10.80723 | 23675 ft | 441 kts | 353° |
| 2026-04-20 18:55 | 53.16849 | 10.79957 | 22969 ft | 435 kts | 353° |
| 2026-04-20 18:55 | 53.19837 | 10.79192 | 22287 ft | 432 kts | 353° |
| 2026-04-20 18:56 | 53.22809 | 10.78432 | 21604 ft | 429 kts | 353° |
| 2026-04-20 18:56 | 53.25755 | 10.77675 | 20944 ft | 427 kts | 354° |
| 2026-04-20 18:56 | 53.28699 | 10.76924 | 20296 ft | 427 kts | 354° |
| 2026-04-20 18:56 | 53.31575 | 10.75795 | 19627 ft | 426 kts | 339° |
| 2026-04-20 18:57 | 53.34038 | 10.73169 | 19068 ft | 427 kts | 320° |
| 2026-04-20 18:57 | 53.35974 | 10.69432 | 18456 ft | 424 kts | 306° |
| 2026-04-20 18:57 | 53.37365 | 10.65108 | 17776 ft | 422 kts | 293° |
| 2026-04-20 18:57 | 53.38068 | 10.60334 | 17099 ft | 423 kts | 278° |
| 2026-04-20 18:58 | 53.38375 | 10.55462 | 16448 ft | 415 kts | 277° |
| 2026-04-20 18:58 | 53.38630 | 10.50694 | 15801 ft | 405 kts | 276° |
| 2026-04-20 18:58 | 53.38873 | 10.46040 | 15151 ft | 396 kts | 276° |
| 2026-04-20 18:58 | 53.39115 | 10.41546 | 14541 ft | 387 kts | 277° |
| 2026-04-20 18:59 | 53.39362 | 10.37100 | 13907 ft | 380 kts | 277° |
| 2026-04-20 18:59 | 53.39610 | 10.32718 | 13234 ft | 374 kts | 277° |
| 2026-04-20 18:59 | 53.39860 | 10.28397 | 12563 ft | 369 kts | 277° |
| 2026-04-20 18:59 | 53.40108 | 10.24138 | 11913 ft | 364 kts | 277° |
| 2026-04-20 19:00 | 53.40352 | 10.19952 | 11274 ft | 358 kts | 277° |
| 2026-04-20 19:00 | 53.40592 | 10.15818 | 10649 ft | 355 kts | 277° |
| 2026-04-20 19:00 | 53.40697 | 10.11743 | 10014 ft | 352 kts | 268° |
| 2026-04-20 19:00 | 53.40499 | 10.07683 | 9487 ft | 345 kts | 265° |
| 2026-04-20 19:01 | 53.40251 | 10.03715 | 8951 ft | 338 kts | 264° |
| 2026-04-20 19:01 | 53.39999 | 9.99810 | 8422 ft | 332 kts | 264° |
| 2026-04-20 19:01 | 53.39751 | 9.96047 | 7909 ft | 328 kts | 264° |
| 2026-04-20 19:01 | 53.39501 | 9.92255 | 7415 ft | 323 kts | 264° |
| 2026-04-20 19:02 | 53.39258 | 9.88545 | 6909 ft | 319 kts | 264° |
| 2026-04-20 19:02 | 53.39017 | 9.84859 | 6399 ft | 315 kts | 264° |
| 2026-04-20 19:02 | 53.38772 | 9.81227 | 5912 ft | 310 kts | 264° |
| 2026-04-20 19:02 | 53.38530 | 9.77659 | 5447 ft | 305 kts | 264° |
| 2026-04-20 19:03 | 53.38488 | 9.74146 | 4955 ft | 301 kts | 283° |
| 2026-04-20 19:03 | 53.39270 | 9.71044 | 4625 ft | 288 kts | 310° |
| 2026-04-20 19:03 | 53.40649 | 9.68750 | 4382 ft | 273 kts | 323° |
| 2026-04-20 19:03 | 53.42088 | 9.66733 | 4115 ft | 265 kts | 323° |
| 2026-04-20 19:04 | 53.43553 | 9.64939 | 3833 ft | 255 kts | 337° |
| 2026-04-20 19:04 | 53.45190 | 9.64443 | 3592 ft | 236 kts | 15° |
| 2026-04-20 19:04 | 53.46538 | 9.65673 | 3489 ft | 216 kts | 46° |
| 2026-04-20 19:04 | 53.47586 | 9.67409 | 3395 ft | 207 kts | 50° |
| 2026-04-20 19:05 | 53.48455 | 9.69273 | 3273 ft | 198 kts | 56° |
| 2026-04-20 19:05 | 53.49310 | 9.71026 | 3149 ft | 188 kts | 52° |
| 2026-04-20 19:05 | 53.50134 | 9.72664 | 3048 ft | 177 kts | 53° |
| 2026-04-20 19:05 | 53.50905 | 9.74225 | 3035 ft | 175 kts | 53° |
| 2026-04-20 19:06 | 53.51678 | 9.75798 | 3024 ft | 175 kts | 53° |
| 2026-04-20 19:06 | 53.52455 | 9.77376 | 2975 ft | 173 kts | 53° |
| 2026-04-20 19:06 | 53.53212 | 9.78910 | 2755 ft | 167 kts | 54° |
| 2026-04-20 19:06 | 53.53933 | 9.80375 | 2538 ft | 157 kts | 53° |
| 2026-04-20 19:07 | 53.54591 | 9.81709 | 2375 ft | 138 kts | 53° |
| 2026-04-20 19:07 | 53.55193 | 9.82930 | 2175 ft | 133 kts | 54° |
| 2026-04-20 19:07 | 53.55769 | 9.84102 | 2000 ft | 130 kts | 54° |
| 2026-04-20 19:07 | 53.56350 | 9.85281 | 1827 ft | 131 kts | 53° |
| 2026-04-20 19:08 | 53.56935 | 9.86465 | 1652 ft | 131 kts | 53° |
| 2026-04-20 19:08 | 53.58117 | 9.88861 | 1308 ft | 137 kts | 51° |
| 2026-04-20 19:08 | 53.58741 | 9.90120 | 1134 ft | 141 kts | 51° |
| 2026-04-20 19:09 | 53.59364 | 9.91371 | 884 ft | 141 kts | 52° |
| 2026-04-20 19:09 | 53.59990 | 9.92646 | 708 ft | 139 kts | 50° |
| 2026-04-20 19:09 | 53.60607 | 9.93893 | 529 ft | 137 kts | 51° |
| 2026-04-20 19:09 | 53.61216 | 9.95125 | 297 ft | 135 kts | 51° |
| 2026-04-20 19:10 | 53.61818 | 9.96346 | 134 ft | 140 kts | 50° |
| 2026-04-20 19:10 | 53.62444 | 9.97616 | 40 ft | 132 kts | 50° |
| 2026-04-20 19:10 | 53.62905 | 9.98553 | 43 ft | 74 kts | 50° |
| 2026-04-20 19:10 | 53.63111 | 9.98969 | 44 ft | 32 kts | 50° |
| 2026-04-20 19:11 | 53.63244 | 9.99244 | 46 ft | 29 kts | 53° |
| 2026-04-20 19:11 | 53.63291 | 9.99507 | 46 ft | 15 kts | 93° |
| 2026-04-20 19:11 | 53.63283 | 9.99604 | 47 ft | 3 kts | 99° |
| 2026-04-20 19:11 | 53.63281 | 9.99620 | 47 ft | 0 kts | 99° |
| 2026-04-20 19:12 | 53.63280 | 9.99634 | 47 ft | 3 kts | 100° |
| 2026-04-20 19:12 | 53.63271 | 9.99692 | 47 ft | 8 kts | 112° |
| 2026-04-20 19:12 | 53.63223 | 9.99760 | 47 ft | 10 kts | 152° |
| 2026-04-20 19:13 | 53.63157 | 9.99818 | 46 ft | 11 kts | 153° |
| 2026-04-20 19:13 | 53.63092 | 9.99874 | 45 ft | 10 kts | 152° |
| 2026-04-20 19:13 | 53.63029 | 9.99929 | 47 ft | 10 kts | 153° |
| 2026-04-20 19:13 | 53.62968 | 9.99982 | 47 ft | 10 kts | 148° |
| 2026-04-20 19:14 | 53.62950 | 10.00079 | 47 ft | 10 kts | 67° |
| 2026-04-20 19:14 | 53.62999 | 10.00150 | 45 ft | 9 kts | 33° |
| 2026-04-20 19:14 | 53.63056 | 10.00211 | 44 ft | 9 kts | 30° |
| 2026-04-20 19:14 | 53.63098 | 10.00238 | 47 ft | 6 kts | 30° |
| 2026-04-20 19:15 | 53.63110 | 10.00300 | 45 ft | 6 kts | 88° |
| 2026-04-20 19:15 | 53.63111 | 10.00361 | 47 ft | 3 kts | 87° |
| 2026-04-20 19:15 | 53.63112 | 10.00365 | 47 ft | 0 kts | 87° |